EKSP/SKS METAR and TAF weather

Enter ICAO airport designator
Station Type Date Time Source
EKSP METAR 2020/07/12 05:20 UTC NOAA

EKSP 120520Z 23003KT 9999 FEW020TCU FEW021 SCT045 12/11 Q1024


Station Type Date Time Source
EKSP Decoded METAR 2020/07/12 05:20 UTC NOAA

Skrydstrup, Denmark (EKSP) 55-14N 009-16E 47M
Jul 12, 2020 - 01:20 AM EDT / 2020.07.12 0520 UTC
Wind: from the SW (230 degrees) at 3 MPH (3 KT):0
Visibility: greater than 7 mile(s):0
Sky conditions: partly cloudy
Weather: Towering cumulus clouds observed
Temperature: 53 F (12 C)
Dew Point: 51 F (11 C)
Relative Humidity: 93%
Pressure (altimeter): 30.24 in. Hg (1024 hPa)
ob: EKSP 120520Z 23003KT 9999 FEW020TCU FEW021 SCT045 12/11 Q1024
cycle: 5

Station Type Date Time Source
EKSP TAF 2020/07/12 06:31 UTC NOAA

TAF EKSP 120510Z 1206/1306 27010KT 9999 BKN030
TEMPO 1206/1209 -SHRA SCT020TCU
TEMPO 1209/1217 28012G25KT

Example: see airport list